createdAt,value
2019-04-20T00:00:01.688Z,53.00
2019-04-20T00:00:59.613Z,52.77
2019-04-20T00:02:04.345Z,52.69
2019-04-20T00:02:59.745Z,51.77
2019-04-20T00:03:57.077Z,52.47
2019-04-20T00:04:57.146Z,52.36
2019-04-20T00:05:57.348Z,52.05
2019-04-20T00:06:57.958Z,52.26
2019-04-20T00:07:57.220Z,52.77
2019-04-20T00:09:04.763Z,52.39
2019-04-20T00:10:05.379Z,52.36
2019-04-20T00:11:07.457Z,52.18
2019-04-20T00:12:06.892Z,52.69
2019-04-20T00:13:08.815Z,52.28
2019-04-20T00:14:05.606Z,52.56
2019-04-20T00:14:58.660Z,51.85
2019-04-20T00:15:57.843Z,52.26
2019-04-20T00:16:56.939Z,52.26
2019-04-20T00:18:01.850Z,52.15
2019-04-20T00:19:00.742Z,52.15
2019-04-20T00:20:00.402Z,52.15
2019-04-20T00:21:03.992Z,51.23
2019-04-20T00:22:02.930Z,51.44
2019-04-20T00:22:58.217Z,51.34
2019-04-20T00:24:01.101Z,51.34
2019-04-20T00:25:04.028Z,51.13
2019-04-20T00:26:08.344Z,51.54
2019-04-20T00:27:14.250Z,52.05
2019-04-20T00:28:16.329Z,51.85
2019-04-20T00:29:17.701Z,51.87
2019-04-20T00:30:20.607Z,51.87
2019-04-20T00:31:12.373Z,52.08
2019-04-20T00:32:11.445Z,52.08
2019-04-20T00:33:07.745Z,51.87
2019-04-20T00:34:06.647Z,52.39
2019-04-20T00:34:57.989Z,51.87
2019-04-20T00:35:57.004Z,52.39
2019-04-20T00:36:58.033Z,52.82
2019-04-20T00:37:57.067Z,53.33
2019-04-20T00:39:00.976Z,53.54
2019-04-20T00:39:57.880Z,53.33
2019-04-20T00:41:02.766Z,53.89
2019-04-20T00:42:03.564Z,54.72
2019-04-20T00:42:59.815Z,55.33
2019-04-20T00:43:57.739Z,55.33
2019-04-20T00:45:05.679Z,56.28
2019-04-20T00:46:01.986Z,55.46
2019-04-20T00:47:09.229Z,55.57
2019-04-20T00:48:03.254Z,56.10
2019-04-20T00:49:07.076Z,56.72
2019-04-20T00:50:14.144Z,57.03
2019-04-20T00:51:20.285Z,56.93
2019-04-20T00:52:24.163Z,57.36
2019-04-20T00:53:09.249Z,57.06
2019-04-20T00:54:00.096Z,57.36
2019-04-20T00:54:56.483Z,56.34
2019-04-20T00:55:57.114Z,56.85
2019-04-20T00:57:57.229Z,57.06
2019-04-20T00:59:08.276Z,57.36
2019-04-20T01:00:11.086Z,57.06
2019-04-20T01:01:13.022Z,57.29
2019-04-20T01:02:13.104Z,57.88
2019-04-20T01:03:09.575Z,58.42
2019-04-20T01:04:17.554Z,58.31
2019-04-20T01:05:11.129Z,59.14
2019-04-20T01:06:12.123Z,59.17
2019-04-20T01:07:07.294Z,58.96
2019-04-20T01:07:57.002Z,59.78
2019-04-20T01:08:53.033Z,59.99
2019-04-20T01:09:52.014Z,60.12
2019-04-20T01:10:54.513Z,60.33
2019-04-20T01:11:52.931Z,60.84
2019-04-20T01:12:58.833Z,61.15
2019-04-20T01:14:00.169Z,61.15
2019-04-20T01:14:57.279Z,61.56
2019-04-20T01:15:58.862Z,62.62
2019-04-20T01:17:00.078Z,62.00
2019-04-20T01:17:52.696Z,62.52
2019-04-20T01:18:51.657Z,62.41
2019-04-20T01:19:52.707Z,62.10
2019-04-20T01:20:51.653Z,62.85
2019-04-20T01:21:59.967Z,63.37
2019-04-20T01:23:00.189Z,63.47
2019-04-20T01:23:57.492Z,64.43
2019-04-20T01:24:53.673Z,64.53
2019-04-20T01:25:56.883Z,64.84
2019-04-20T01:26:55.940Z,65.59
2019-04-20T01:28:07.748Z,65.70
2019-04-20T01:29:06.263Z,66.11
2019-04-20T01:30:03.391Z,65.80
2019-04-20T01:31:06.474Z,66.31
2019-04-20T01:32:05.661Z,66.73
2019-04-20T01:33:03.922Z,66.55
2019-04-20T01:33:58.467Z,66.97
2019-04-20T01:35:04.502Z,67.27
2019-04-20T01:36:09.014Z,67.07
2019-04-20T01:37:09.527Z,67.17
2019-04-20T01:38:12.447Z,67.17
2019-04-20T01:39:02.713Z,67.17
2019-04-20T01:39:56.789Z,67.17
2019-04-20T01:40:52.763Z,67.58
2019-04-20T01:41:51.972Z,67.58
2019-04-20T01:42:51.407Z,67.79
2019-04-20T01:43:52.257Z,68.51
2019-04-20T01:44:53.567Z,68.85
2019-04-20T01:45:58.690Z,67.93
2019-04-20T01:46:57.052Z,68.13
2019-04-20T01:47:55.862Z,68.54
2019-04-20T01:48:52.646Z,68.13
2019-04-20T01:49:59.740Z,68.34
2019-04-20T01:51:02.421Z,68.44
2019-04-20T01:52:03.819Z,68.24
2019-04-20T01:53:03.519Z,68.75
2019-04-20T01:54:06.764Z,68.65
2019-04-20T01:55:13.075Z,69.06
2019-04-20T01:56:09.892Z,69.48
2019-04-20T01:57:04.144Z,70.30
2019-04-20T01:58:12.200Z,70.33
2019-04-20T01:59:10.643Z,70.95
2019-04-20T02:00:01.816Z,70.95
2019-04-20T02:00:54.797Z,72.40
2019-04-20T02:01:57.715Z,72.43
2019-04-20T02:02:58.346Z,72.22
2019-04-20T02:03:55.420Z,72.88
2019-04-20T02:04:52.533Z,73.60
2019-04-20T02:05:56.461Z,73.91
2019-04-20T02:06:57.924Z,74.12
2019-04-20T02:07:55.068Z,74.57
2019-04-20T02:08:58.221Z,74.05
2019-04-20T02:09:58.257Z,74.15
2019-04-20T02:10:57.049Z,74.15
2019-04-20T02:11:53.723Z,74.05
2019-04-20T02:12:56.053Z,74.15
2019-04-20T02:13:57.327Z,73.12
2019-04-20T02:14:57.173Z,74.57
2019-04-20T02:15:56.397Z,74.15
2019-04-20T02:17:03.131Z,73.94
2019-04-20T02:18:10.246Z,74.67
2019-04-20T02:19:12.024Z,75.74
2019-04-20T02:20:12.628Z,75.63
2019-04-20T02:21:09.843Z,76.46
2019-04-20T02:22:06.265Z,75.98
2019-04-20T02:23:03.137Z,75.98
2019-04-20T02:23:57.793Z,75.78
2019-04-20T02:24:52.771Z,75.78
2019-04-20T02:25:52.153Z,76.71
2019-04-20T02:26:51.957Z,76.81
2019-04-20T02:27:57.804Z,77.01
2019-04-20T02:29:18.997Z,76.81
2019-04-20T02:30:21.689Z,75.46
2019-04-20T02:33:42.523Z,75.98
2019-04-20T02:34:29.228Z,74.84
2019-04-20T02:35:25.050Z,76.09
2019-04-20T02:36:38.211Z,76.09
2019-04-20T02:37:26.744Z,75.98
2019-04-20T02:38:36.872Z,76.09
2019-04-20T02:40:30.995Z,75.67
2019-04-20T02:41:31.567Z,75.67
2019-04-20T02:42:24.503Z,76.09
2019-04-20T02:43:32.914Z,76.23
2019-04-20T02:44:36.165Z,76.53
2019-04-20T02:45:34.856Z,76.23
2019-04-20T02:46:26.478Z,76.84
2019-04-20T02:47:40.491Z,77.36
2019-04-20T02:48:21.650Z,77.36
2019-04-20T02:50:19.113Z,78.09
2019-04-20T02:51:22.599Z,78.12
2019-04-20T02:52:32.700Z,78.12
2019-04-20T02:54:18.854Z,77.92
2019-04-20T02:55:26.831Z,78.23
2019-04-20T02:58:27.160Z,77.95
2019-04-20T02:59:47.536Z,78.27
2019-04-20T03:00:17.813Z,78.12
2019-04-20T03:01:13.283Z,78.44
2019-04-20T03:02:13.342Z,78.06
2019-04-20T03:03:07.082Z,78.58
2019-04-20T03:03:57.656Z,77.54
2019-04-20T03:05:08.152Z,76.88
2019-04-20T03:06:05.707Z,76.36
2019-04-20T03:07:09.068Z,76.05
2019-04-20T03:08:12.795Z,75.74
2019-04-20T03:09:17.688Z,75.71
2019-04-20T03:10:13.177Z,76.64
2019-04-20T03:11:16.129Z,75.71
2019-04-20T03:12:21.717Z,75.71
2019-04-20T03:13:14.397Z,76.64
2019-04-20T03:14:09.556Z,76.02
2019-04-20T03:15:04.536Z,76.64
2019-04-20T03:16:11.058Z,76.12
2019-04-20T03:17:15.588Z,76.32
2019-04-20T03:18:14.954Z,76.84
2019-04-20T03:19:10.894Z,76.12
2019-04-20T03:20:06.158Z,76.23
2019-04-20T03:21:11.251Z,76.74
2019-04-20T03:22:14.853Z,76.57
2019-04-20T03:23:26.408Z,76.36
2019-04-20T03:24:20.409Z,76.36
2019-04-20T03:25:11.377Z,76.05
2019-04-20T03:26:13.797Z,75.74
2019-04-20T03:27:09.618Z,76.36
2019-04-20T03:28:10.834Z,76.23
2019-04-20T03:29:07.866Z,75.95
2019-04-20T03:30:03.702Z,76.36
2019-04-20T03:32:40.231Z,76.78
2019-04-20T03:33:28.613Z,76.67
2019-04-20T03:34:37.713Z,76.71
2019-04-20T03:35:29.817Z,76.57
2019-04-20T03:36:20.986Z,77.02
2019-04-20T03:37:13.158Z,77.12
2019-04-20T03:38:10.441Z,76.40
2019-04-20T03:39:10.051Z,76.09
2019-04-20T03:40:05.489Z,75.98
2019-04-20T03:41:03.985Z,76.61
2019-04-20T03:41:54.695Z,76.71
2019-04-20T03:42:50.697Z,77.02
2019-04-20T03:43:50.052Z,76.81
2019-04-20T03:44:57.075Z,76.85
2019-04-20T03:45:57.981Z,78.51
2019-04-20T03:46:57.038Z,77.26
2019-04-20T03:48:03.081Z,77.26
2019-04-20T03:49:07.408Z,77.06
2019-04-20T03:50:10.947Z,76.95
2019-04-20T03:51:14.736Z,76.95
2019-04-20T03:52:09.639Z,76.43
2019-04-20T03:53:12.914Z,76.02
2019-04-20T03:54:12.521Z,75.81
2019-04-20T03:55:12.871Z,76.23
2019-04-20T03:56:09.679Z,75.19
2019-04-20T03:57:17.056Z,75.29
2019-04-20T03:58:08.824Z,74.57
2019-04-20T03:59:09.064Z,75.15
2019-04-20T04:00:14.959Z,74.63
2019-04-20T04:01:14.793Z,74.32
2019-04-20T04:02:37.726Z,74.01
2019-04-20T04:03:20.238Z,72.98
2019-04-20T04:04:12.148Z,72.98
2019-04-20T04:05:08.537Z,73.18
2019-04-20T04:06:05.475Z,73.49
2019-04-20T04:06:55.845Z,74.01
2019-04-20T04:08:04.286Z,74.01
2019-04-20T04:09:06.390Z,74.32
2019-04-20T04:10:08.131Z,74.53
2019-04-20T04:11:12.379Z,74.26
2019-04-20T04:12:03.507Z,74.98
2019-04-20T04:12:51.756Z,74.67
2019-04-20T04:13:50.390Z,74.46
2019-04-20T04:14:49.720Z,74.88
2019-04-20T04:15:55.705Z,75.09
2019-04-20T04:16:55.666Z,74.15
2019-04-20T04:17:51.484Z,74.26
2019-04-20T04:19:02.830Z,74.26
2019-04-20T04:19:55.789Z,74.05
2019-04-20T04:20:58.719Z,74.15
2019-04-20T04:22:04.191Z,74.15
2019-04-20T04:23:10.286Z,74.77
2019-04-20T04:24:07.418Z,74.05
2019-04-20T04:25:01.795Z,74.57
2019-04-20T04:26:08.723Z,74.36
2019-04-20T04:27:03.594Z,74.05
2019-04-20T04:28:07.001Z,74.36
2019-04-20T04:29:14.459Z,74.67
2019-04-20T04:30:08.030Z,74.67
2019-04-20T04:32:21.159Z,75.29
2019-04-20T04:33:33.980Z,74.46
2019-04-20T04:34:09.317Z,74.46
2019-04-20T04:35:05.568Z,74.57
2019-04-20T04:36:04.640Z,74.22
2019-04-20T04:37:15.204Z,74.01
2019-04-20T04:38:09.582Z,74.22
2019-04-20T04:39:15.325Z,74.43
2019-04-20T04:40:22.521Z,74.26
2019-04-20T04:41:16.403Z,74.22
2019-04-20T04:42:19.232Z,74.84
2019-04-20T04:43:10.290Z,74.53
2019-04-20T04:44:09.669Z,74.22
2019-04-20T04:44:58.191Z,74.11
2019-04-20T04:45:51.364Z,74.43
2019-04-20T04:46:54.692Z,74.40
2019-04-20T04:47:51.422Z,74.50
2019-04-20T04:48:52.535Z,75.02
2019-04-20T04:50:01.068Z,74.50
2019-04-20T04:50:57.458Z,74.08
2019-04-20T04:52:00.164Z,74.91
2019-04-20T04:52:59.718Z,73.46
2019-04-20T04:53:58.058Z,73.67
2019-04-20T04:54:56.641Z,73.63
2019-04-20T04:55:57.731Z,73.53
2019-04-20T04:56:50.467Z,72.29
2019-04-20T04:57:49.539Z,72.71
2019-04-20T04:58:49.589Z,72.50
2019-04-20T04:59:49.215Z,72.15
2019-04-20T05:00:49.488Z,72.25
2019-04-20T05:01:53.091Z,71.53
2019-04-20T05:02:53.802Z,71.12
2019-04-20T05:04:14.740Z,71.73
2019-04-20T05:05:12.918Z,71.19
2019-04-20T05:06:07.592Z,71.29
2019-04-20T05:07:03.867Z,71.29
2019-04-20T05:07:59.261Z,70.87
2019-04-20T05:08:55.105Z,71.26
2019-04-20T05:09:50.683Z,71.36
2019-04-20T05:10:49.975Z,69.88
2019-04-20T05:11:56.818Z,69.16
2019-04-20T05:12:51.380Z,69.06
2019-04-20T05:13:56.669Z,68.02
2019-04-20T05:15:01.030Z,67.16
2019-04-20T05:16:04.981Z,65.73
2019-04-20T05:17:07.538Z,65.64
2019-04-20T05:18:11.922Z,63.05
2019-04-20T05:19:13.412Z,59.95
2019-04-20T05:20:10.551Z,56.95
2019-04-20T05:21:12.557Z,54.02
2019-04-20T05:22:26.173Z,55.15
2019-04-20T05:23:07.619Z,53.87
2019-04-20T05:24:08.536Z,51.90
2019-04-20T05:25:11.969Z,49.81
2019-04-20T05:26:13.795Z,48.84
2019-04-20T05:27:15.950Z,48.00
2019-04-20T05:28:05.283Z,48.51
2019-04-20T05:28:59.025Z,48.18
2019-04-20T05:29:50.864Z,47.14
2019-04-20T05:30:55.877Z,46.41
2019-04-20T05:31:56.252Z,45.69
2019-04-20T05:32:57.823Z,44.85
2019-04-20T05:34:15.617Z,43.94
2019-04-20T05:35:15.101Z,42.92
2019-04-20T05:36:13.434Z,42.90
2019-04-20T05:37:15.068Z,43.41
2019-04-20T05:38:11.914Z,43.30
2019-04-20T05:39:14.436Z,45.22
2019-04-20T05:40:12.310Z,42.94
2019-04-20T05:41:08.842Z,40.99
2019-04-20T05:42:14.948Z,40.39
2019-04-20T05:43:10.634Z,40.88
2019-04-20T05:43:59.451Z,39.78
2019-04-20T05:45:01.863Z,39.75
2019-04-20T05:46:03.263Z,39.93
2019-04-20T05:47:13.672Z,39.32
2019-04-20T05:48:08.773Z,38.81
2019-04-20T05:49:17.698Z,39.32
2019-04-20T05:50:03.598Z,38.79
2019-04-20T05:51:12.751Z,40.09
2019-04-20T05:52:24.392Z,38.90
2019-04-20T05:53:14.492Z,38.47
2019-04-20T05:54:16.476Z,38.57
2019-04-20T05:55:09.960Z,38.66
2019-04-20T05:56:02.652Z,38.54
2019-04-20T05:57:15.014Z,38.56
2019-04-20T05:58:08.821Z,39.15
2019-04-20T05:59:11.559Z,37.22
2019-04-20T06:00:13.640Z,37.61
2019-04-20T06:01:16.199Z,37.40
2019-04-20T06:02:13.239Z,36.69
2019-04-20T06:03:05.614Z,37.99
2019-04-20T06:04:05.462Z,39.11
2019-04-20T06:06:10.022Z,37.37
2019-04-20T06:07:09.445Z,35.35
2019-04-20T06:08:15.675Z,35.65
2019-04-20T06:09:14.238Z,35.75
2019-04-20T06:10:16.804Z,35.94
2019-04-20T06:12:27.964Z,34.82
2019-04-20T06:13:06.337Z,34.92
2019-04-20T06:13:59.969Z,35.11
2019-04-20T06:15:04.454Z,34.69
2019-04-20T06:16:10.328Z,35.08
2019-04-20T06:17:08.866Z,34.45
2019-04-20T06:18:06.970Z,33.83
2019-04-20T06:19:22.337Z,33.02
2019-04-20T06:20:12.612Z,33.01
2019-04-20T06:21:21.054Z,32.30
2019-04-20T06:22:11.296Z,33.34
2019-04-20T06:23:14.249Z,33.95
2019-04-20T06:24:12.740Z,33.53
2019-04-20T06:25:21.970Z,33.63
2019-04-20T06:26:28.230Z,32.69
2019-04-20T06:27:11.506Z,31.58
2019-04-20T06:28:06.624Z,32.46
2019-04-20T06:29:07.051Z,31.53
2019-04-20T06:30:08.602Z,30.83
2019-04-20T06:31:09.006Z,31.72
2019-04-20T06:32:14.024Z,31.52
2019-04-20T06:33:12.864Z,31.63
2019-04-20T06:35:28.997Z,31.13
2019-04-20T06:36:26.184Z,31.12
2019-04-20T06:37:05.785Z,30.90
2019-04-20T06:38:32.591Z,32.48
2019-04-20T06:39:16.049Z,31.37
2019-04-20T06:40:29.539Z,32.41
2019-04-20T06:41:21.099Z,34.64
2019-04-20T06:43:05.458Z,33.39
2019-04-20T06:44:18.028Z,31.27
2019-04-20T06:45:15.988Z,32.58
2019-04-20T06:46:09.806Z,32.63
2019-04-20T06:47:27.246Z,35.10
2019-04-20T06:48:13.774Z,35.70
2019-04-20T06:49:18.422Z,36.00
2019-04-20T06:50:07.503Z,36.30
2019-04-20T06:51:02.068Z,35.77
2019-04-20T06:52:17.169Z,35.35
2019-04-20T06:53:18.165Z,34.42
2019-04-20T06:53:59.704Z,34.92
2019-04-20T06:55:05.636Z,34.74
2019-04-20T06:56:15.542Z,34.52
2019-04-20T06:57:12.982Z,34.72
2019-04-20T06:58:33.534Z,33.99
2019-04-20T06:59:11.956Z,34.49
2019-04-20T07:00:12.756Z,32.68
2019-04-20T07:01:15.286Z,33.39
2019-04-20T07:02:17.311Z,33.18
2019-04-20T07:03:28.316Z,32.68
2019-04-20T07:04:37.594Z,33.47
2019-04-20T07:05:12.806Z,32.35
2019-04-20T07:06:29.356Z,32.85
2019-04-20T07:07:14.364Z,32.43
2019-04-20T07:08:28.895Z,32.55
2019-04-20T07:09:19.949Z,32.64
2019-04-20T07:10:14.761Z,32.93
2019-04-20T07:11:12.576Z,33.54
2019-04-20T07:12:06.380Z,33.34
2019-04-20T07:13:02.699Z,35.18
2019-04-20T07:13:58.750Z,34.47
2019-04-20T07:14:58.957Z,34.59
2019-04-20T07:16:04.114Z,34.59
2019-04-20T07:17:24.434Z,35.91
2019-04-20T07:18:09.488Z,37.43
2019-04-20T07:19:09.172Z,35.88
2019-04-20T07:20:04.562Z,36.69
2019-04-20T07:21:15.323Z,34.27
2019-04-20T07:23:21.350Z,34.91
2019-04-20T07:24:19.587Z,37.46
2019-04-20T07:25:08.016Z,37.06
2019-04-20T07:26:17.072Z,36.82
2019-04-20T07:27:06.472Z,35.21
2019-04-20T07:28:12.610Z,36.84
2019-04-20T07:29:18.503Z,36.64
2019-04-20T07:30:12.492Z,35.39
2019-04-20T07:31:08.458Z,35.08
2019-04-20T07:32:01.696Z,35.82
2019-04-20T07:33:10.458Z,35.70
2019-04-20T07:34:10.408Z,34.88
2019-04-20T07:35:09.365Z,35.46
2019-04-20T07:36:11.775Z,35.03
2019-04-20T07:37:40.240Z,34.91
2019-04-20T07:38:23.396Z,34.71
2019-04-20T07:39:13.310Z,34.01
2019-04-20T07:40:13.829Z,33.40
2019-04-20T07:41:10.226Z,35.36
2019-04-20T07:42:16.740Z,34.71
2019-04-20T07:43:04.432Z,34.53
2019-04-20T07:44:16.614Z,34.84
2019-04-20T07:45:14.837Z,35.66
2019-04-20T07:46:10.537Z,35.16
2019-04-20T07:47:13.531Z,34.59
2019-04-20T07:48:11.254Z,36.92
2019-04-20T07:49:07.298Z,36.18
2019-04-20T07:50:05.058Z,35.38
2019-04-20T07:51:00.418Z,36.44
2019-04-20T07:51:49.515Z,38.65
2019-04-20T07:53:04.432Z,36.69
2019-04-20T07:54:22.003Z,35.30
2019-04-20T07:55:31.954Z,36.49
2019-04-20T07:56:14.731Z,35.26
2019-04-20T07:57:10.220Z,36.07
2019-04-20T07:58:01.351Z,35.35
2019-04-20T07:58:55.325Z,35.35
2019-04-20T08:00:06.353Z,33.92
2019-04-20T08:01:17.866Z,34.49
2019-04-20T08:02:16.236Z,33.78
2019-04-20T08:03:03.378Z,32.67
2019-04-20T08:04:08.055Z,33.09
2019-04-20T08:05:04.405Z,33.78
2019-04-20T08:05:58.309Z,32.65
2019-04-20T08:06:53.938Z,31.44
2019-04-20T08:08:02.527Z,32.21
2019-04-20T08:09:05.755Z,31.11
2019-04-20T08:09:55.561Z,31.12
2019-04-20T08:11:07.360Z,32.54
2019-04-20T08:12:11.298Z,33.07
2019-04-20T08:14:11.186Z,34.96
2019-04-20T08:15:11.114Z,34.56
2019-04-20T08:16:06.697Z,33.37
2019-04-20T08:17:26.796Z,32.70
2019-04-20T08:18:07.437Z,36.77
2019-04-20T08:19:08.421Z,36.90
2019-04-20T08:20:05.769Z,35.60
2019-04-20T08:21:08.222Z,35.30
2019-04-20T08:22:08.001Z,36.18
2019-04-20T08:23:06.218Z,34.94
2019-04-20T08:24:07.310Z,34.71
2019-04-20T08:25:03.528Z,34.08
2019-04-20T08:26:00.393Z,34.76
2019-04-20T08:26:53.928Z,33.71
2019-04-20T08:27:48.777Z,34.41
2019-04-20T08:28:55.089Z,35.14
2019-04-20T08:29:58.779Z,35.23
2019-04-20T08:31:06.661Z,34.49
2019-04-20T08:32:08.696Z,33.71
2019-04-20T08:33:03.943Z,33.59
2019-04-20T08:34:28.523Z,34.33
2019-04-20T08:35:14.306Z,34.66
2019-04-20T08:36:14.725Z,33.34
2019-04-20T08:37:05.966Z,34.91
2019-04-20T08:38:37.262Z,34.78
2019-04-20T08:39:25.771Z,32.34
2019-04-20T08:40:13.214Z,31.43
2019-04-20T08:41:02.823Z,31.40
2019-04-20T08:42:11.648Z,30.91
2019-04-20T08:43:26.133Z,31.10
2019-04-20T08:44:32.364Z,30.19
2019-04-20T08:45:08.334Z,30.49
2019-04-20T08:46:05.316Z,31.01
2019-04-20T08:47:18.297Z,30.49
2019-04-20T08:48:11.509Z,31.29
2019-04-20T08:49:10.039Z,30.98
2019-04-20T08:50:11.605Z,30.88
2019-04-20T08:51:07.529Z,30.87
2019-04-20T08:52:22.963Z,30.85
2019-04-20T08:53:15.676Z,31.48
2019-04-20T08:54:06.838Z,29.15
2019-04-20T08:55:04.671Z,30.15
2019-04-20T08:56:00.242Z,30.44
2019-04-20T08:56:53.638Z,31.63
2019-04-20T08:57:47.679Z,32.32
2019-04-20T08:58:46.628Z,31.40
2019-04-20T08:59:48.360Z,30.59
2019-04-20T09:00:53.581Z,29.01
2019-04-20T09:01:48.865Z,28.74
2019-04-20T09:02:48.867Z,30.74
2019-04-20T09:03:59.923Z,28.73
2019-04-20T09:04:56.405Z,28.33
2019-04-20T09:05:58.963Z,28.03
2019-04-20T09:07:02.592Z,28.11
2019-04-20T09:07:56.583Z,27.72
2019-04-20T09:08:59.688Z,28.71
2019-04-20T09:10:12.303Z,26.84
2019-04-20T09:11:05.637Z,27.84
2019-04-20T09:12:05.907Z,26.83
2019-04-20T09:13:02.557Z,27.62
2019-04-20T09:13:51.894Z,28.52
2019-04-20T09:14:48.741Z,26.82
2019-04-20T09:15:47.044Z,27.83
2019-04-20T09:16:54.317Z,28.50
2019-04-20T09:17:53.005Z,27.62
2019-04-20T09:18:55.548Z,26.93
2019-04-20T09:19:55.872Z,26.53
2019-04-20T09:20:58.391Z,27.63
2019-04-20T09:21:54.927Z,26.34
2019-04-20T09:23:02.262Z,26.35
2019-04-20T09:24:04.480Z,27.15
2019-04-20T09:25:07.228Z,26.06
2019-04-20T09:26:06.025Z,25.85
2019-04-20T09:27:04.706Z,26.34
2019-04-20T09:27:56.212Z,26.73
2019-04-20T09:29:00.561Z,26.03
2019-04-20T09:30:00.218Z,25.43
2019-04-20T09:31:01.812Z,25.63
2019-04-20T09:32:08.162Z,26.14
2019-04-20T09:33:06.267Z,26.83
2019-04-20T09:34:04.572Z,26.43
2019-04-20T09:35:07.782Z,24.93
2019-04-20T09:36:02.360Z,25.92
2019-04-20T09:37:08.405Z,26.51
2019-04-20T09:38:09.098Z,23.32
2019-04-20T09:39:00.018Z,24.32
2019-04-20T09:40:10.935Z,26.42
2019-04-20T09:41:03.694Z,26.90
2019-04-20T09:41:59.655Z,24.21
2019-04-20T09:42:47.138Z,24.41
2019-04-20T09:43:47.386Z,24.13
2019-04-20T09:44:51.108Z,24.54
2019-04-20T09:45:52.263Z,24.24
2019-04-20T09:46:51.508Z,24.62
2019-04-20T09:47:51.330Z,24.22
2019-04-20T09:48:53.709Z,24.14
2019-04-20T09:49:58.153Z,25.42
2019-04-20T09:51:03.849Z,24.24
2019-04-20T09:52:01.689Z,22.84
2019-04-20T09:53:02.422Z,23.45
2019-04-20T09:53:59.729Z,24.46
2019-04-20T09:55:05.727Z,26.06
2019-04-20T09:56:01.577Z,26.07
2019-04-20T09:57:11.852Z,26.26
2019-04-20T09:58:02.074Z,26.16
2019-04-20T09:59:09.830Z,24.27
2019-04-20T10:00:04.325Z,25.17
2019-04-20T10:01:04.424Z,24.68
2019-04-20T10:01:54.696Z,25.51
2019-04-20T10:02:48.345Z,22.92
2019-04-20T10:03:47.096Z,24.52
2019-04-20T10:04:47.214Z,24.13
2019-04-20T10:05:45.916Z,24.23
2019-04-20T10:06:45.902Z,23.83
2019-04-20T10:07:49.300Z,23.63
2019-04-20T10:08:51.494Z,24.43
2019-04-20T10:09:48.622Z,24.04
2019-04-20T10:10:47.215Z,23.74
2019-04-20T10:11:47.050Z,23.35
2019-04-20T10:12:45.837Z,25.15
2019-04-20T10:13:46.039Z,26.16
2019-04-20T10:14:46.872Z,27.06
2019-04-20T10:15:45.974Z,28.08
2019-04-20T10:16:45.790Z,26.27
2019-04-20T10:17:45.777Z,26.17
2019-04-20T10:18:50.567Z,24.46
2019-04-20T10:19:48.213Z,25.07
2019-04-20T10:20:45.780Z,26.07
2019-04-20T10:21:45.764Z,24.96
2019-04-20T10:22:46.718Z,24.45
2019-04-20T10:23:45.712Z,25.05
2019-04-20T10:24:48.557Z,24.26
2019-04-20T10:25:46.821Z,26.26
2019-04-20T10:26:45.697Z,24.64
2019-04-20T10:27:45.669Z,24.95
2019-04-20T10:28:45.710Z,24.84
2019-04-20T10:29:45.883Z,24.45
2019-04-20T10:30:46.299Z,24.65
2019-04-20T10:31:51.447Z,25.13
2019-04-20T10:32:50.509Z,25.03
2019-04-20T10:33:46.585Z,24.34
2019-04-20T10:34:46.421Z,25.46
2019-04-20T10:35:45.657Z,26.15
2019-04-20T10:36:45.913Z,26.25
2019-04-20T10:37:45.594Z,26.65
2019-04-20T10:38:46.531Z,25.74
2019-04-20T10:39:46.807Z,25.04
2019-04-20T10:40:56.216Z,24.84
2019-04-20T10:41:51.262Z,26.56
2019-04-20T10:42:46.546Z,24.74
2019-04-20T10:43:46.886Z,24.76
2019-04-20T10:44:45.495Z,25.05
2019-04-20T10:45:46.677Z,24.55
2019-04-20T10:46:45.460Z,26.34
2019-04-20T10:47:45.443Z,25.74
2019-04-20T10:48:49.166Z,26.25
2019-04-20T10:49:47.055Z,25.24
2019-04-20T10:50:45.406Z,26.93
2019-04-20T10:51:45.407Z,27.62
2019-04-20T10:52:45.814Z,25.72
2019-04-20T10:53:46.459Z,25.83
2019-04-20T10:54:45.388Z,27.22
2019-04-20T10:55:45.359Z,26.92
2019-04-20T10:56:45.722Z,25.62
2019-04-20T10:57:45.857Z,27.22
2019-04-20T10:58:45.513Z,27.11
2019-04-20T10:59:45.713Z,26.01
2019-04-20T11:00:46.069Z,26.51
2019-04-20T11:01:45.664Z,26.31
2019-04-20T11:02:47.456Z,26.31
2019-04-20T11:03:45.269Z,27.11
2019-04-20T11:04:46.453Z,25.11
2019-04-20T11:05:46.660Z,27.01
2019-04-20T11:06:45.236Z,26.41
2019-04-20T11:07:46.332Z,26.10
2019-04-20T11:08:46.563Z,26.01
2019-04-20T11:09:45.206Z,26.71
2019-04-20T11:10:55.570Z,26.21
2019-04-20T11:11:46.227Z,26.71
2019-04-20T11:12:46.373Z,26.52
2019-04-20T11:13:45.589Z,27.92
2019-04-20T11:14:45.684Z,27.92
2019-04-20T11:15:46.306Z,28.22
2019-04-20T11:16:46.575Z,28.22
2019-04-20T11:17:45.789Z,28.91
2019-04-20T11:18:45.293Z,27.81
2019-04-20T11:19:45.350Z,30.29
2019-04-20T11:20:45.614Z,28.19
2019-04-20T11:21:46.312Z,28.09
2019-04-20T11:22:46.287Z,27.89
2019-04-20T11:23:45.049Z,28.39
2019-04-20T11:24:46.111Z,27.00
2019-04-20T11:25:46.283Z,28.00
2019-04-20T11:26:46.491Z,28.00
2019-04-20T11:27:45.978Z,26.81
2019-04-20T11:28:46.140Z,28.01
2019-04-20T11:29:46.307Z,27.41
2019-04-20T11:30:46.092Z,26.31
2019-04-20T11:31:49.251Z,28.31
2019-04-20T11:32:46.313Z,26.31
2019-04-20T11:33:45.887Z,27.41
2019-04-20T11:34:45.400Z,28.39
2019-04-20T11:35:46.222Z,28.30
2019-04-20T11:36:45.477Z,28.18
2019-04-20T11:37:44.973Z,25.98
2019-04-20T11:38:44.952Z,28.98
2019-04-20T11:39:45.326Z,28.78
2019-04-20T11:40:45.012Z,29.06
2019-04-20T11:41:45.724Z,27.37
2019-04-20T11:42:45.636Z,27.28
2019-04-20T11:43:44.826Z,27.19
2019-04-20T11:44:44.889Z,26.88
2019-04-20T11:45:44.791Z,28.39
2019-04-20T11:46:44.984Z,27.70
2019-04-20T11:47:45.306Z,26.81
2019-04-20T11:48:45.458Z,27.20
2019-04-20T11:49:45.791Z,26.59
2019-04-20T11:50:45.417Z,26.91
2019-04-20T11:51:45.542Z,27.21
2019-04-20T11:52:48.176Z,30.10
2019-04-20T11:53:46.092Z,29.00
2019-04-20T11:54:44.707Z,27.80
2019-04-20T11:55:44.704Z,27.39
2019-04-20T11:56:47.137Z,28.98
2019-04-20T11:57:45.238Z,26.97
2019-04-20T11:58:44.929Z,26.27
2019-04-20T11:59:45.326Z,25.87
2019-04-20T12:00:55.349Z,26.47
2019-04-20T12:01:51.897Z,27.77
2019-04-20T12:02:47.779Z,26.78
2019-04-20T12:03:56.399Z,27.08
2019-04-20T12:04:52.013Z,26.28
2019-04-20T12:05:51.263Z,28.78
2019-04-20T12:06:46.610Z,27.19
2019-04-20T12:07:44.820Z,28.38
2019-04-20T12:08:45.450Z,28.18
2019-04-20T12:09:44.543Z,26.18
2019-04-20T12:10:51.356Z,26.39
2019-04-20T12:11:59.643Z,25.89
2019-04-20T12:12:50.265Z,25.29
2019-04-20T12:13:46.758Z,26.21
2019-04-20T12:14:44.490Z,27.20
2019-04-20T12:15:45.514Z,26.29
2019-04-20T12:16:45.759Z,26.59
2019-04-20T12:17:44.452Z,28.38
2019-04-20T12:18:44.470Z,26.37
2019-04-20T12:19:44.433Z,27.07
2019-04-20T12:20:44.956Z,26.20
2019-04-20T12:21:45.508Z,24.90
2019-04-20T12:22:44.394Z,24.71
2019-04-20T12:23:44.604Z,25.21
2019-04-20T12:24:44.587Z,25.70
2019-04-20T12:25:45.007Z,25.89
2019-04-20T12:26:44.803Z,27.19
2019-04-20T12:27:50.738Z,24.79
2019-04-20T12:28:45.480Z,26.37
2019-04-20T12:29:45.653Z,26.07
2019-04-20T12:30:44.309Z,25.87
2019-04-20T12:31:51.203Z,24.96
2019-04-20T12:32:51.770Z,26.06
2019-04-20T12:33:46.492Z,26.27
2019-04-20T12:34:45.443Z,26.16
2019-04-20T12:35:44.510Z,26.56
2019-04-20T12:36:44.870Z,25.07
2019-04-20T12:37:45.097Z,26.17
2019-04-20T12:38:46.146Z,25.18
2019-04-20T12:39:44.926Z,25.59
2019-04-20T12:40:44.213Z,27.97
2019-04-20T12:41:50.449Z,27.67
2019-04-20T12:42:45.174Z,27.07
2019-04-20T12:43:45.565Z,26.35
2019-04-20T12:44:44.166Z,27.95
2019-04-20T12:45:44.236Z,25.56
2019-04-20T12:46:44.130Z,24.86
2019-04-20T12:47:46.972Z,25.76
2019-04-20T12:48:44.107Z,25.56
2019-04-20T12:49:45.392Z,26.77
2019-04-20T12:50:44.098Z,26.35
2019-04-20T12:51:52.206Z,25.26
2019-04-20T12:52:46.242Z,24.66
2019-04-20T12:53:44.531Z,24.26
2019-04-20T12:54:45.137Z,24.58
2019-04-20T12:55:44.377Z,24.67
2019-04-20T12:56:44.659Z,26.17
2019-04-20T12:57:54.479Z,24.77
2019-04-20T12:58:45.117Z,26.18
2019-04-20T12:59:46.105Z,27.57
2019-04-20T13:00:43.981Z,27.17
2019-04-20T13:01:43.951Z,26.27
2019-04-20T13:02:45.254Z,26.27
2019-04-20T13:03:43.969Z,24.37
2019-04-20T13:04:43.921Z,26.07
2019-04-20T13:05:43.932Z,24.57
2019-04-20T13:06:44.728Z,25.46
2019-04-20T13:07:47.837Z,24.96